Festivo — EAEQ — position and weather

sailwx.info

Track history (hours):
 
Tides and Currents Weather Stations Pressure Air Temp Water Temp Dewpoint Dewpoint Depression Visibility Wind Speed Wind Dir Waves Ship Positions

Festivo

Last reported at 2014-Oct-30 11:32 UTC. Time now 2014-Nov-01 00:21 UTC.
Position N 36°01' W 005°11'.

Length 136 m; draft 4.5 m.

Type: Cargo ship. MMSI: 225410000.

Date/timePositionNaut miles runAvg speedWind from/ knotsBaromVisibWave heightAir tempDewpointWater temp
2014-Oct-30 11:32N 36°01' W 005°11'9 9.5
2014-Oct-30 10:33N 35°54' W 005°19'0 0.2
2014-Oct-30 09:32N 35°54' W 005°19'0 0.0
2014-Oct-30 08:32N 35°54' W 005°19'0 0.0
2014-Oct-30 07:32N 35°54' W 005°19'0 0.0
2014-Oct-30 06:34N 35°54' W 005°19'5 4.7
2014-Oct-30 05:33N 35°57' W 005°15'  
2014-Oct-25 16:30N 35°55' W 005°12'6 5.8
2014-Oct-25 15:31N 35°54' W 005°19'0 0.0
2014-Oct-25 14:31N 35°54' W 005°19'0 0.0
2014-Oct-25 13:31N 35°54' W 005°19'0 0.0
2014-Oct-25 12:31N 35°54' W 005°19'0 0.0
2014-Oct-25 11:31N 35°54' W 005°19'0 0.0
2014-Oct-25 10:31N 35°54' W 005°19'0 0.0
2014-Oct-25 09:31N 35°54' W 005°19'0 0.0
2014-Oct-25 08:31N 35°54' W 005°19'0 0.0
2014-Oct-25 07:31N 35°54' W 005°19'0 0.0
2014-Oct-25 06:33N 35°54' W 005°19'5 5.0
2014-Oct-25 05:33N 35°58' W 005°15'0 0.0
2014-Oct-23 09:33N 35°57' W 005°16'5 4.5
2014-Oct-23 08:31N 35°54' W 005°19'0 0.0
2014-Oct-23 07:31N 35°54' W 005°19'0 0.0
2014-Oct-23 06:31N 35°54' W 005°19'0 0.0
2014-Oct-23 05:31N 35°54' W 005°19'1 0.6
2014-Oct-23 04:33N 35°54' W 005°19'9 9.0
2014-Oct-23 03:31N 36°00' W 005°10'  
Track history (hours):
 
Tides and Currents Weather Stations Pressure Air Temp Water Temp Dewpoint Dewpoint Depression Visibility Wind Speed Wind Dir Waves Ship Positions

Festivo

Last reported at 2014-Oct-30 11:32 UTC. Time now 2014-Nov-01 00:21 UTC.
Position N 36°01' W 005°11'.

Length 136 m; draft 4.5 m.

Type: Cargo ship. MMSI: 225410000.

Date/timePositionNaut miles runAvg speedWind from/ knotsBaromVisibWave heightAir tempDewpointWater temp
2014-Oct-30 11:32N 36°01' W 005°11'9 9.5
2014-Oct-30 10:33N 35°54' W 005°19'0 0.2
2014-Oct-30 09:32N 35°54' W 005°19'0 0.0
2014-Oct-30 08:32N 35°54' W 005°19'0 0.0
2014-Oct-30 07:32N 35°54' W 005°19'0 0.0
2014-Oct-30 06:34N 35°54' W 005°19'5 4.7
2014-Oct-30 05:33N 35°57' W 005°15'  
2014-Oct-25 16:30N 35°55' W 005°12'6 5.8
2014-Oct-25 15:31N 35°54' W 005°19'0 0.0
2014-Oct-25 14:31N 35°54' W 005°19'0 0.0
2014-Oct-25 13:31N 35°54' W 005°19'0 0.0
2014-Oct-25 12:31N 35°54' W 005°19'0 0.0
2014-Oct-25 11:31N 35°54' W 005°19'0 0.0
2014-Oct-25 10:31N 35°54' W 005°19'0 0.0
2014-Oct-25 09:31N 35°54' W 005°19'0 0.0
2014-Oct-25 08:31N 35°54' W 005°19'0 0.0
2014-Oct-25 07:31N 35°54' W 005°19'0 0.0
2014-Oct-25 06:33N 35°54' W 005°19'5 5.0
2014-Oct-25 05:33N 35°58' W 005°15'0 0.0
2014-Oct-23 09:33N 35°57' W 005°16'5 4.5
2014-Oct-23 08:31N 35°54' W 005°19'0 0.0
2014-Oct-23 07:31N 35°54' W 005°19'0 0.0
2014-Oct-23 06:31N 35°54' W 005°19'0 0.0
2014-Oct-23 05:31N 35°54' W 005°19'1 0.6
2014-Oct-23 04:33N 35°54' W 005°19'9 9.0
2014-Oct-23 03:31N 36°00' W 005°10'  

Dump ship's entire track history